Time;durP1;ratioP1;P1;durP2;ratioP2;P2;SDS_P1;SDS_P2;PMS_P1;PMS_P2;Temp;Humidity;BMP_temperature;BMP_pressure;BME280_temperature;BME280_humidity;BME280_pressure;Samples;Min_cycle;Max_cycle;Signal;HPM_P1;HPM_P2
2022/05/06 00:00:57;;;;;;;10.45;8.68;;;;;;;14.35;71.57;96598.13;5085807;28;20051;-76
2022/05/06 00:03:24;;;;;;;25.02;10.63;;;;;;;13.71;74.08;96591.06;5086120;28;20051;-74
2022/05/06 00:05:50;;;;;;;654.40;547.20;;;;;;;13.47;75.42;96596.38;5085888;28;20058;-75
2022/05/06 00:08:17;;;;;;;654.47;490.85;;;;;;;13.59;75.07;96593.72;5085697;28;20140;-74
2022/05/06 00:10:44;;;;;;;654.75;492.08;;;;;;;13.66;73.92;96591.25;5086116;28;20134;-77
2022/05/06 00:13:11;;;;;;;668.10;506.70;;;;;;;13.78;73.92;96594.09;5084451;28;20063;-74
2022/05/06 00:15:37;;;;;;;632.40;447.00;;;;;;;13.86;73.39;96602.56;5085551;28;20047;-78
2022/05/06 00:18:06;;;;;;;634.35;443.10;;;;;;;13.72;73.40;96609.06;5084050;28;20044;-76
2022/05/06 00:20:32;;;;;;;632.80;444.33;;;;;;;13.62;74.25;96609.44;5085699;28;20052;-75
2022/05/06 00:23:00;;;;;;;639.92;443.85;;;;;;;13.59;74.65;96610.13;5084508;28;20548;-76
2022/05/06 00:25:27;;;;;;;655.50;473.35;;;;;;;13.60;74.51;96610.94;5085017;28;20096;-79
2022/05/06 00:27:54;;;;;;;649.10;471.65;;;;;;;13.63;74.46;96613.81;5084396;28;20457;-74
2022/05/06 00:30:21;;;;;;;642.60;468.00;;;;;;;13.75;74.14;96615.84;5085492;28;20043;-77
2022/05/06 00:32:47;;;;;;;640.30;459.98;;;;;;;13.83;74.06;96615.78;5085945;28;20090;-75
2022/05/06 00:35:15;;;;;;;654.72;472.23;;;;;;;13.80;74.40;96616.44;5084961;28;20044;-75
2022/05/06 00:37:41;;;;;;;634.13;461.00;;;;;;;13.85;74.21;96615.44;5085655;28;20051;-75
2022/05/06 00:40:09;;;;;;;656.25;481.58;;;;;;;13.80;74.61;96610.97;5084643;28;20054;-75
2022/05/06 00:42:35;;;;;;;646.72;483.67;;;;;;;13.86;74.06;96610.78;5085728;28;20059;-75
2022/05/06 00:45:03;;;;;;;645.53;477.92;;;;;;;13.86;73.68;96605.28;5084003;28;20573;-74
2022/05/06 00:47:30;;;;;;;633.60;500.13;;;;;;;13.96;73.56;96611.19;5085696;28;20068;-77
2022/05/06 00:49:56;;;;;;;658.45;504.90;;;;;;;13.80;73.24;96615.63;5084739;28;20400;-76
2022/05/06 00:52:25;;;;;;;657.17;497.92;;;;;;;13.93;73.09;96608.28;5084973;28;20048;-75
2022/05/06 00:54:53;;;;;;;655.90;507.35;;;;;;;13.82;72.45;96597.72;5085043;28;20051;-75
2022/05/06 00:57:19;;;;;;;655.78;489.55;;;;;;;13.91;72.92;96599.63;5084418;28;20048;-76
2022/05/06 01:02:30;;;;;;;652.28;497.85;;;;;;;13.81;71.75;96601.63;5084598;28;20055;-76
2022/05/06 01:04:56;;;;;;;577.67;520.97;;;;;;;13.82;70.32;96597.72;5086043;28;20082;-76
2022/05/06 01:07:24;;;;;;;583.88;500.25;;;;;;;13.79;70.66;96601.16;5084064;28;20048;-77
2022/05/06 01:09:51;;;;;;;579.17;522.08;;;;;;;13.51;70.59;96606.31;5085784;28;20059;-77
2022/05/06 01:12:17;;;;;;;640.80;480.98;;;;;;;13.46;70.49;96601.00;5084045;28;20181;-75
2022/05/06 01:14:44;;;;;;;639.67;474.98;;;;;;;13.45;70.95;96604.88;5085128;28;20139;-76
2022/05/06 01:17:10;;;;;;;638.53;477.33;;;;;;;13.57;70.36;96606.91;5084254;28;20095;-74
2022/05/06 01:19:37;;;;;;;637.88;478.10;;;;;;;13.30;71.40;96602.72;5085171;28;20071;-75
2022/05/06 01:22:05;;;;;;;634.10;468.90;;;;;;;13.20;72.03;96605.78;5084990;28;20518;-75
2022/05/06 01:24:32;;;;;;;634.97;471.98;;;;;;;13.16;72.52;96602.94;5084571;28;20056;-77
2022/05/06 01:27:04;;;;;;;633.05;439.40;;;;;;;13.18;72.65;96608.84;5085544;28;20542;-75
2022/05/06 01:29:32;;;;;;;631.80;447.23;;;;;;;13.20;72.84;96603.84;5084250;28;20123;-77
2022/05/06 01:31:59;;;;;;;632.28;457.67;;;;;;;13.31;72.85;96604.31;5085537;28;20142;-75
2022/05/06 01:34:29;;;;;;;636.08;455.45;;;;;;;13.37;72.59;96602.22;5084940;28;20402;-75
2022/05/06 01:36:58;;;;;;;643.17;456.38;;;;;;;13.46;72.48;96600.22;5084977;28;20055;-76
2022/05/06 01:39:30;;;;;;;643.88;480.83;;;;;;;13.41;72.48;96598.47;5084466;28;20047;-75
2022/05/06 01:41:59;;;;;;;639.28;455.33;;;;;;;13.45;72.74;96591.22;5084416;28;20071;-76
2022/05/06 01:44:31;;;;;;;643.28;480.23;;;;;;;13.58;72.68;96592.91;5084639;28;20059;-75
2022/05/06 01:47:01;;;;;;;634.25;465.85;;;;;;;13.67;72.80;96584.63;5084106;28;20047;-75
2022/05/06 01:49:31;;;;;;;633.80;471.90;;;;;;;13.68;73.41;96586.25;5085244;28;20049;-74
2022/05/06 01:51:59;;;;;;;649.83;486.08;;;;;;;13.68;73.26;96591.72;5084291;28;20553;-75
2022/05/06 01:54:27;;;;;;;645.42;466.48;;;;;;;13.62;73.30;96592.25;5084945;28;20032;-75
2022/05/06 01:56:53;;;;;;;632.85;463.50;;;;;;;13.61;73.43;96588.69;5087474;28;20055;-76
2022/05/06 01:59:20;;;;;;;641.10;471.35;;;;;;;13.61;73.29;96588.69;5088236;28;20044;-75
2022/05/06 02:01:46;;;;;;;636.80;475.05;;;;;;;13.58;72.58;96592.13;5088922;28;20060;-75
2022/05/06 02:06:57;;;;;;;620.85;434.88;;;;;;;13.69;72.27;96593.34;5088825;28;20148;-77
2022/05/06 02:09:23;;;;;;;627.80;458.38;;;;;;;13.76;72.19;96604.53;5087282;28;20044;-77
2022/05/06 02:11:52;;;;;;;623.55;452.75;;;;;;;13.80;71.64;96605.50;5088812;28;20137;-74
2022/05/06 02:14:19;;;;;;;622.05;469.85;;;;;;;13.90;70.80;96600.75;5087263;28;20727;-77
2022/05/06 02:16:46;;;;;;;632.22;461.42;;;;;;;13.98;70.71;96595.19;5088630;28;20052;-78
2022/05/06 02:19:13;;;;;;;635.20;480.17;;;;;;;14.03;70.65;96596.94;5087740;28;20043;-76
2022/05/06 02:21:40;;;;;;;637.15;471.63;;;;;;;14.06;71.18;96597.09;5087960;28;20047;-77
2022/05/06 02:24:07;;;;;;;642.83;497.98;;;;;;;14.09;71.48;96601.06;5087804;28;20048;-76
2022/05/06 02:26:33;;;;;;;646.88;498.38;;;;;;;14.14;71.24;96609.09;5087716;28;20047;-78
2022/05/06 02:29:01;;;;;;;630.42;481.23;;;;;;;14.17;70.60;96605.69;5088579;28;20048;-76
2022/05/06 02:34:16;;;;;;;638.97;507.75;;;;;;;13.99;70.48;96580.41;5088236;28;20050;-77
2022/05/06 02:36:43;;;;;;;620.63;470.55;;;;;;;13.90;71.77;96584.34;5087458;28;20599;-76
2022/05/06 02:39:09;;;;;;;631.00;486.63;;;;;;;13.88;72.78;96586.59;5087428;28;20418;-77
2022/05/06 02:41:36;;;;;;;621.30;476.13;;;;;;;13.82;73.65;96589.53;5087527;28;20055;-77
2022/05/06 02:44:05;;;;;;;634.95;495.25;;;;;;;13.73;74.06;96583.34;5087153;28;20040;-79
2022/05/06 02:46:33;;;;;;;626.75;494.88;;;;;;;13.66;74.85;96583.03;5087694;28;20075;-77
2022/05/06 02:49:00;;;;;;;642.67;516.90;;;;;;;13.64;75.88;96582.56;5087270;28;20056;-77
2022/05/06 02:51:28;;;;;;;633.53;501.40;;;;;;;13.58;76.70;96586.66;5088017;28;20406;-77
2022/05/06 02:53:55;;;;;;;633.15;474.83;;;;;;;13.52;77.26;96590.69;5087296;28;20509;-79
2022/05/06 02:56:21;;;;;;;631.55;483.80;;;;;;;13.46;77.90;96590.06;5087787;28;21079;-76
2022/05/06 02:58:47;;;;;;;631.47;465.42;;;;;;;13.41;78.32;96582.06;5086997;28;20055;-77
2022/05/06 03:01:15;;;;;;;637.42;487.27;;;;;;;13.37;78.96;96581.13;5087186;28;20048;-77
2022/05/06 03:03:42;;;;;;;149.65;89.97;;;;;;;13.28;79.55;96578.44;5087085;28;20052;-77
2022/05/06 03:06:09;;;;;;;636.08;484.98;;;;;;;13.28;80.42;96575.69;5086264;28;20051;-77
2022/05/06 03:08:36;;;;;;;622.25;464.35;;;;;;;13.23;80.82;96575.88;5087681;28;20043;-78
2022/05/06 03:11:03;;;;;;;627.25;483.35;;;;;;;13.17;81.03;96571.72;5086342;28;20125;-79
2022/05/06 03:13:30;;;;;;;622.38;463.60;;;;;;;13.10;81.50;96571.41;5087459;28;20429;-79
2022/05/06 03:15:56;;;;;;;631.70;468.75;;;;;;;13.07;82.50;96561.16;5086519;28;20059;-79
2022/05/06 03:18:24;;;;;;;620.60;438.90;;;;;;;13.00;82.93;96567.13;5086719;28;20414;-79
2022/05/06 03:20:50;;;;;;;612.05;428.55;;;;;;;12.88;83.80;96563.47;5086753;28;20048;-78
2022/05/06 03:23:17;;;;;;;618.40;425.65;;;;;;;12.77;84.17;96569.28;5086758;28;20686;-79
2022/05/06 03:25:43;;;;;;;614.17;414.13;;;;;;;12.73;85.09;96568.34;5086384;28;20040;-77
2022/05/06 03:28:10;;;;;;;622.53;438.48;;;;;;;12.71;85.61;96569.81;5086353;28;20052;-78
2022/05/06 03:30:41;;;;;;;614.08;409.25;;;;;;;12.68;86.17;96565.78;5086832;28;20055;-79
2022/05/06 03:33:09;;;;;;;618.47;436.90;;;;;;;12.72;86.76;96560.47;5086271;28;20048;-79
2022/05/06 03:35:38;;;;;;;617.83;432.17;;;;;;;12.69;86.73;96575.59;5087056;28;20052;-78
2022/05/06 03:38:05;;;;;;;702.42;627.92;;;;;;;12.83;87.46;96580.84;5084657;28;20427;-78
2022/05/06 03:40:33;;;;;;;622.60;487.67;;;;;;;12.88;86.61;96588.06;5082702;28;20139;-79
2022/05/06 03:42:59;;;;;;;618.35;462.50;;;;;;;12.84;86.40;96589.84;5086199;28;20075;-78
2022/05/06 03:45:26;;;;;;;647.67;466.23;;;;;;;12.76;86.58;96573.16;5082983;28;20052;-78
2022/05/06 03:47:54;;;;;;;613.30;426.90;;;;;;;12.71;86.92;96584.25;5082959;28;20040;-78
2022/05/06 03:53:07;;;;;;;750.15;673.70;;;;;;;12.78;87.81;96576.34;5084925;28;20936;-79
2022/05/06 03:55:33;;;;;;;632.75;493.67;;;;;;;12.85;87.30;96591.47;5086075;28;20087;-79
2022/05/06 03:58:00;;;;;;;623.83;456.88;;;;;;;12.82;87.14;96581.97;5086680;28;20052;-79
2022/05/06 04:00:27;;;;;;;615.33;433.58;;;;;;;12.76;87.16;96592.28;5085727;28;20044;-78
2022/05/06 04:02:53;;;;;;;612.58;400.63;;;;;;;12.75;87.23;96587.94;5086671;28;20060;-79
2022/05/06 04:05:20;;;;;;;609.03;390.02;;;;;;;12.71;87.37;96597.91;5084926;28;20048;-79
2022/05/06 04:07:47;;;;;;;609.75;402.45;;;;;;;12.65;87.91;96599.22;5086319;28;20055;-78
2022/05/06 04:10:14;;;;;;;697.30;622.40;;;;;;;12.71;88.59;96608.84;5084190;28;20910;-79
2022/05/06 04:12:41;;;;;;;639.95;503.85;;;;;;;12.78;88.45;96609.16;5085924;28;20072;-78
2022/05/06 04:15:08;;;;;;;620.97;452.02;;;;;;;12.76;88.48;96605.94;5085983;28;20529;-79
2022/05/06 04:17:35;;;;;;;632.47;468.70;;;;;;;12.67;88.04;96613.34;5085514;28;20047;-80
2022/05/06 04:25:31;;;;;;;626.58;444.55;;;;;;;12.59;89.07;96622.38;5085500;28;20047;-79
2022/05/06 04:27:57;;;;;;;622.67;446.35;;;;;;;12.61;89.31;96619.31;5085242;28;20056;-78
2022/05/06 04:30:24;;;;;;;615.72;422.58;;;;;;;12.59;89.46;96624.31;5085936;28;20458;-78
2022/05/06 04:32:50;;;;;;;621.75;432.85;;;;;;;12.60;89.79;96624.00;5086052;28;20051;-79
2022/05/06 04:35:17;;;;;;;626.75;430.90;;;;;;;12.53;89.56;96618.22;5084778;28;20079;-78
2022/05/06 04:37:44;;;;;;;616.67;422.70;;;;;;;12.50;89.66;96618.84;5085815;28;20127;-79
2022/05/06 04:40:12;;;;;;;623.78;426.27;;;;;;;12.49;89.73;96623.53;5084784;28;20055;-79
2022/05/06 04:42:40;;;;;;;614.40;389.08;;;;;;;12.47;89.90;96622.22;5085523;28;20764;-80
2022/05/06 04:45:07;;;;;;;610.95;389.73;;;;;;;12.46;90.55;96617.91;5084785;28;20048;-78
2022/05/06 04:47:36;;;;;;;614.20;405.13;;;;;;;12.45;89.86;96627.22;5085229;28;20048;-79
2022/05/06 04:50:04;;;;;;;621.97;457.50;;;;;;;12.39;90.06;96628.50;5084661;28;20052;-78
2022/05/06 04:52:31;;;;;;;629.33;440.48;;;;;;;12.38;90.04;96626.91;5085908;28;20460;-79
2022/05/06 04:54:57;;;;;;;625.55;427.02;;;;;;;12.31;90.22;96632.03;5085439;28;20059;-79
2022/05/06 04:57:24;;;;;;;624.80;420.73;;;;;;;12.32;90.70;96642.66;5084510;28;20066;-78
2022/05/06 04:59:52;;;;;;;628.33;464.27;;;;;;;12.38;90.72;96643.31;5085378;28;20422;-78
2022/05/06 05:02:18;;;;;;;628.85;451.42;;;;;;;12.40;90.69;96649.22;5084472;28;20047;-79
2022/05/06 05:04:46;;;;;;;640.33;490.70;;;;;;;12.38;90.34;96644.09;5085638;28;20074;-79
2022/05/06 05:07:13;;;;;;;649.47;493.33;;;;;;;12.38;90.19;96648.75;5079126;28;20079;-77
2022/05/06 05:09:39;;;;;;;644.63;507.38;;;;;;;12.36;90.04;96653.72;5065756;28;20060;-78
2022/05/06 05:12:07;;;;;;;625.03;396.13;;;;;;;12.34;89.96;96653.25;5064317;28;20411;-77
2022/05/06 05:14:35;;;;;;;629.72;446.45;;;;;;;12.34;90.04;96647.78;5065086;28;20056;-77
2022/05/06 05:17:03;;;;;;;645.50;502.67;;;;;;;12.36;90.58;96642.81;5077406;28;20145;-78
2022/05/06 05:19:30;;;;;;;611.67;382.48;;;;;;;12.36;90.41;96648.25;5084864;28;20094;-78
2022/05/06 05:21:56;;;;;;;645.05;499.50;;;;;;;12.37;90.43;96647.13;5085185;28;20051;-78
2022/05/06 05:24:22;;;;;;;624.58;401.77;;;;;;;12.33;90.31;96655.19;5084649;28;20052;-78
2022/05/06 05:26:49;;;;;;;610.75;392.08;;;;;;;12.30;90.77;96661.28;5085020;28;20935;-76
2022/05/06 05:29:16;;;;;;;625.03;422.05;;;;;;;12.31;90.72;96660.16;5085309;28;20074;-77
2022/05/06 05:31:43;;;;;;;614.80;400.58;;;;;;;12.34;90.71;96661.44;5089696;28;20051;-77
2022/05/06 05:34:11;;;;;;;631.00;443.08;;;;;;;12.31;90.22;96665.59;5087987;28;20062;-78
2022/05/06 05:36:37;;;;;;;617.72;405.48;;;;;;;12.28;90.32;96664.34;5089232;28;20571;-76
2022/05/06 05:39:04;;;;;;;612.15;385.55;;;;;;;12.28;89.99;96664.34;5088572;28;20044;-77
2022/05/06 05:41:31;;;;;;;607.58;373.02;;;;;;;12.29;90.05;96656.94;5089100;28;20864;-76
2022/05/06 05:49:27;;;;;;;614.83;402.45;;;;;;;12.15;90.55;96656.28;5088901;28;20379;-77
2022/05/06 05:51:54;;;;;;;607.75;371.38;;;;;;;12.15;91.13;96657.09;5088340;28;20063;-76
2022/05/06 05:54:20;;;;;;;633.67;421.88;;;;;;;12.17;90.92;96649.41;5088390;28;20793;-77
2022/05/06 05:56:47;;;;;;;625.78;429.83;;;;;;;12.15;91.09;96646.19;5087806;28;20044;-77
2022/05/06 05:59:13;;;;;;;620.45;382.67;;;;;;;12.15;91.29;96646.19;5087810;28;20052;-76
2022/05/06 06:01:40;;;;;;;614.63;389.20;;;;;;;12.17;91.44;96654.88;5088220;28;20702;-77
2022/05/06 06:04:06;;;;;;;618.95;413.98;;;;;;;12.18;91.91;96659.19;5088351;28;20056;-77
2022/05/06 06:06:34;;;;;;;604.55;369.42;;;;;;;12.21;91.73;96655.81;5088595;28;20472;-77
2022/05/06 06:09:01;;;;;;;616.90;395.42;;;;;;;12.24;91.72;96655.19;5088052;28;20059;-77
2022/05/06 06:11:27;;;;;;;609.92;398.73;;;;;;;12.25;91.23;96666.91;5088494;28;20079;-77
2022/05/06 06:13:54;;;;;;;622.67;424.42;;;;;;;12.22;90.97;96656.63;5087395;28;20059;-77
2022/05/06 06:16:20;;;;;;;619.60;393.42;;;;;;;12.15;90.87;96657.09;5087769;28;20048;-78
2022/05/06 06:18:47;;;;;;;623.85;433.65;;;;;;;12.12;91.39;96655.03;5088035;28;20051;-77
2022/05/06 06:21:14;;;;;;;624.08;422.42;;;;;;;12.11;91.71;96653.41;5087940;28;20044;-78
2022/05/06 06:23:41;;;;;;;605.67;364.85;;;;;;;12.16;91.83;96652.44;5088084;28;20055;-76
2022/05/06 06:26:08;;;;;;;630.55;452.08;;;;;;;12.18;91.95;96661.94;5087492;28;20139;-78
2022/05/06 06:28:35;;;;;;;612.45;364.65;;;;;;;12.17;92.23;96665.78;5088366;28;20070;-77
2022/05/06 06:31:01;;;;;;;621.45;408.02;;;;;;;12.18;92.25;96661.94;5087484;28;20047;-77
2022/05/06 06:33:28;;;;;;;607.28;366.90;;;;;;;12.26;92.17;96669.31;5088490;28;20132;-77
2022/05/06 06:35:54;;;;;;;624.65;423.42;;;;;;;12.30;91.78;96663.22;5087503;28;20044;-77
2022/05/06 06:38:21;;;;;;;694.25;619.28;;;;;;;12.42;91.25;96668.81;5086885;28;20936;-77
2022/05/06 06:40:48;;;;;;;643.45;530.00;;;;;;;12.48;90.41;96659.38;5087421;28;20043;-78
2022/05/06 06:43:15;;;;;;;642.47;443.90;;;;;;;12.43;90.18;96663.06;5087329;28;20070;-77
2022/05/06 06:45:41;;;;;;;611.65;383.00;;;;;;;12.45;90.37;96665.47;5087359;28;20070;-78
2022/05/06 06:48:08;;;;;;;623.45;448.70;;;;;;;12.46;90.51;96667.84;5086962;28;20044;-77
2022/05/06 06:50:35;;;;;;;641.85;457.42;;;;;;;12.47;91.16;96657.72;5087792;28;20503;-77
2022/05/06 06:53:02;;;;;;;598.40;375.90;;;;;;;12.48;91.15;96659.38;5087400;28;20550;-76
2022/05/06 06:55:29;;;;;;;620.28;431.85;;;;;;;12.49;91.16;96650.84;5087867;28;20799;-77
2022/05/06 06:57:56;;;;;;;599.83;364.70;;;;;;;12.44;90.64;96655.66;5087592;28;20056;-78
2022/05/06 07:00:23;;;;;;;600.03;370.13;;;;;;;12.45;90.78;96660.00;5087596;28;20528;-77
2022/05/06 07:02:49;;;;;;;621.60;420.83;;;;;;;12.40;90.82;96658.22;5086603;28;20052;-77
2022/05/06 07:05:16;;;;;;;602.50;350.42;;;;;;;12.43;91.17;96657.59;5087566;28;20048;-77
2022/05/06 07:11:52;;;;;;;632.08;411.73;;;;;;;12.42;91.10;96660.63;5087240;28;20074;-78
2022/05/06 07:13:30;;;;;;;646.15;463.52;;;;;;;12.43;91.52;96671.25;5087038;28;20115;-77
2022/05/06 07:15:57;;;;;;;629.40;418.65;;;;;;;12.41;91.69;96675.41;5086684;28;20048;-76
2022/05/06 07:18:23;;;;;;;621.67;393.70;;;;;;;12.45;91.85;96676.38;5086978;28;20059;-77
2022/05/06 07:20:50;;;;;;;596.42;378.02;;;;;;;12.48;91.61;96681.22;5086581;28;20051;-77
2022/05/06 07:23:16;;;;;;;616.40;443.88;;;;;;;12.50;91.37;96673.50;5087089;28;20047;-77
2022/05/06 07:25:43;;;;;;;625.90;422.17;;;;;;;12.54;91.61;96674.47;5086428;28;20055;-77
2022/05/06 07:28:09;;;;;;;627.42;438.83;;;;;;;12.57;91.26;96679.25;5086975;28;20044;-76
2022/05/06 07:30:37;;;;;;;638.28;480.08;;;;;;;12.61;91.45;96676.69;5087084;28;20404;-77
2022/05/06 07:33:04;;;;;;;639.20;500.83;;;;;;;12.63;91.27;96682.63;5086669;28;20056;-76
2022/05/06 07:35:31;;;;;;;639.58;476.70;;;;;;;12.68;91.27;96675.06;5087082;28;20122;-77
2022/05/06 07:37:57;;;;;;;623.13;442.40;;;;;;;12.73;90.71;96676.81;5086437;28;20052;-76
2022/05/06 07:40:24;;;;;;;614.05;396.80;;;;;;;12.72;90.67;96667.84;5086218;28;20048;-77
2022/05/06 07:42:51;;;;;;;624.15;443.15;;;;;;;12.77;90.82;96673.13;5086298;28;20047;-76
2022/05/06 07:45:18;;;;;;;628.88;460.92;;;;;;;12.83;90.58;96672.97;5086425;28;20581;-76
2022/05/06 07:47:46;;;;;;;619.22;404.55;;;;;;;12.82;90.20;96672.16;5085183;28;20059;-76
2022/05/06 07:50:12;;;;;;;644.35;506.10;;;;;;;12.87;90.44;96676.66;5086582;28;20052;-77
2022/05/06 07:52:40;;;;;;;628.28;451.95;;;;;;;12.91;90.44;96677.63;5086297;28;20063;-76
2022/05/06 07:55:10;;;;;;;622.03;408.73;;;;;;;12.92;90.92;96677.28;5085537;28;20047;-77
2022/05/06 07:57:36;;;;;;;626.90;440.70;;;;;;;12.93;90.92;96689.03;5086624;28;20051;-76
2022/05/06 08:00:03;;;;;;;634.33;460.95;;;;;;;12.96;90.99;96686.44;5085735;28;20048;-77
2022/05/06 08:05:16;;;;;;;621.05;443.98;;;;;;;13.01;90.88;96688.22;5085426;28;20830;-76
2022/05/06 08:07:43;;;;;;;626.25;462.40;;;;;;;13.09;90.80;96689.31;5086245;28;20055;-77
2022/05/06 08:10:10;;;;;;;640.35;526.30;;;;;;;13.12;90.68;96689.47;5085363;28;20043;-76
2022/05/06 08:12:37;;;;;;;621.97;400.73;;;;;;;13.17;90.63;96686.56;5086661;28;20048;-77
2022/05/06 08:15:03;;;;;;;612.25;419.42;;;;;;;13.17;90.31;96686.56;5085717;28;20052;-76
2022/05/06 08:17:30;;;;;;;622.20;430.48;;;;;;;13.20;89.92;96696.03;5085975;28;20047;-76
2022/05/06 08:19:56;;;;;;;626.85;468.20;;;;;;;13.22;89.46;96689.16;5086176;28;20044;-77
2022/05/06 08:22:25;;;;;;;619.83;447.10;;;;;;;13.25;88.99;96693.94;5085402;28;20973;-76
2022/05/06 08:24:52;;;;;;;620.58;452.92;;;;;;;13.31;88.89;96703.59;5086531;28;20131;-76
2022/05/06 08:27:18;;;;;;;633.45;499.13;;;;;;;13.35;88.79;96692.00;5085529;28;20098;-76
2022/05/06 08:29:45;;;;;;;638.15;514.65;;;;;;;13.42;89.40;96709.50;5086391;28;20059;-76
2022/05/06 08:32:11;;;;;;;643.28;527.47;;;;;;;13.43;88.96;96699.38;5085162;28;20654;-77
2022/05/06 08:34:38;;;;;;;637.10;501.65;;;;;;;13.47;88.78;96700.34;5085808;28;20052;-76
2022/05/06 08:37:05;;;;;;;638.63;508.65;;;;;;;13.52;88.68;96703.69;5085271;28;20052;-76
2022/05/06 08:39:33;;;;;;;623.47;436.17;;;;;;;13.56;88.81;96706.53;5085865;28;20619;-76
2022/05/06 08:42:02;;;;;;;650.65;543.53;;;;;;;13.56;88.03;96706.53;5085713;28;20059;-77
2022/05/06 08:52:48;;;;;;;623.72;449.67;;;;;;;13.06;88.79;96704.44;5085607;28;20101;-76
2022/05/06 08:55:18;;;;;;;618.97;448.58;;;;;;;12.99;89.32;96701.38;5084890;28;20048;-76
2022/05/06 08:57:46;;;;;;;626.63;467.70;;;;;;;12.98;89.83;96710.72;5065889;28;20056;-77
2022/05/06 09:00:14;;;;;;;623.65;481.15;;;;;;;12.97;90.31;96711.84;5065112;28;20582;-76
2022/05/06 09:02:41;;;;;;;629.88;459.38;;;;;;;13.05;91.22;96708.31;5064271;28;20057;-77
2022/05/06 09:05:15;;;;;;;630.78;455.38;;;;;;;13.05;91.20;96711.84;5064650;28;20056;-77
2022/05/06 09:07:42;;;;;;;614.80;424.23;;;;;;;13.05;91.06;96721.97;5064278;28;20052;-77
2022/05/06 09:10:13;;;;;;;641.22;511.88;;;;;;;13.06;91.48;96723.56;5065168;28;20044;-75
2022/05/06 09:12:42;;;;;;;610.22;396.60;;;;;;;13.04;91.32;96732.09;5064640;28;20056;-75
2022/05/06 09:17:57;;;;;;;627.08;432.17;;;;;;;13.13;91.77;96737.53;5085272;28;20405;-77
2022/05/06 09:20:26;;;;;;;641.60;493.25;;;;;;;13.14;91.84;96733.69;5083993;28;20044;-80
2022/05/06 09:22:53;;;;;;;631.58;432.98;;;;;;;13.16;91.73;96738.84;5085409;28;20093;-76
2022/05/06 09:25:35;;;;;;;638.38;459.80;;;;;;;13.12;91.52;96733.22;5084047;28;20048;-76
2022/05/06 09:28:05;;;;;;;634.25;424.05;;;;;;;13.11;92.53;96731.59;5085028;28;20056;-75
2022/05/06 09:30:33;;;;;;;627.55;419.48;;;;;;;13.17;92.66;96741.25;5084923;28;20109;-77
2022/05/06 09:33:00;;;;;;;643.05;447.25;;;;;;;13.17;92.56;96741.25;5084970;28;20052;-75
2022/05/06 09:35:28;;;;;;;631.90;438.98;;;;;;;13.22;92.47;96737.56;5084264;28;20055;-76
2022/05/06 09:37:55;;;;;;;641.75;491.40;;;;;;;13.21;91.86;96747.72;5084448;28;20048;-76
2022/05/06 09:40:27;;;;;;;618.85;442.77;;;;;;;13.24;92.01;96752.50;5084786;28;20091;-78
2022/05/06 09:42:58;;;;;;;467.10;331.88;;;;;;;13.23;91.78;96747.38;5084083;28;20056;-75
2022/05/06 09:45:32;;;;;;;627.85;444.67;;;;;;;13.22;91.43;96749.31;5084655;28;20437;-77
2022/05/06 09:48:00;;;;;;;629.47;425.75;;;;;;;13.25;91.48;96745.09;5084729;28;20052;-76
2022/05/06 09:50:34;;;;;;;628.90;412.23;;;;;;;13.32;91.60;96753.63;5084628;28;20044;-75
2022/05/06 09:53:01;;;;;;;620.50;422.33;;;;;;;13.37;92.23;96747.19;5084854;28;20044;-76
2022/05/06 09:55:29;;;;;;;639.03;465.50;;;;;;;13.44;92.47;96744.75;5084883;28;20780;-77
2022/05/06 09:57:57;;;;;;;633.10;430.58;;;;;;;13.54;92.71;96756.13;5084766;28;20829;-75
2022/05/06 10:00:24;;;;;;;630.70;415.48;;;;;;;13.61;92.57;96754.81;5083681;28;20160;-75
2022/05/06 10:02:52;;;;;;;649.20;508.55;;;;;;;13.66;92.50;96749.16;5085037;28;20055;-77
2022/05/06 10:05:18;;;;;;;628.28;446.30;;;;;;;13.71;92.38;96748.97;5083425;28;20045;-77
2022/05/06 10:07:46;;;;;;;640.22;455.25;;;;;;;13.77;92.00;96748.47;5084920;28;20055;-77
2022/05/06 10:10:19;;;;;;;635.17;437.80;;;;;;;13.81;92.15;96749.41;5083386;28;20055;-76
2022/05/06 10:12:52;;;;;;;660.10;488.95;;;;;;;13.83;92.18;96752.66;5084669;28;20052;-76
2022/05/06 10:15:21;;;;;;;653.90;493.60;;;;;;;13.90;91.77;96756.81;5083929;28;20110;-77
2022/05/06 10:17:53;;;;;;;631.85;450.60;;;;;;;13.87;92.12;96752.78;5086002;28;20585;-76
2022/05/06 10:20:59;;;;;;;612.90;422.90;;;;;;;13.96;92.16;96744.53;5087909;28;20561;-75
2022/05/06 10:23:57;;;;;;;630.47;467.65;;;;;;;14.03;91.84;96744.81;5086898;28;20044;-77
2022/05/06 10:26:40;;;;;;;634.08;501.50;;;;;;;14.06;91.89;96744.94;5023825;28;20049;-75
2022/05/06 10:35:10;;;;;;;637.72;501.15;;;;;;;14.03;92.57;96748.34;5068011;28;20136;-75
2022/05/06 10:37:38;;;;;;;655.28;578.38;;;;;;;13.87;91.78;96754.72;5067734;28;20086;-76
2022/05/06 10:40:32;;;;;;;633.33;518.70;;;;;;;13.84;92.13;96754.25;5066824;28;20129;-75
2022/05/06 10:42:59;;;;;;;633.15;500.77;;;;;;;13.81;91.76;96754.91;5068103;28;20056;-74
2022/05/06 10:45:29;;;;;;;637.28;520.25;;;;;;;13.77;91.64;96753.94;5066196;28;20588;-76
2022/05/06 10:47:56;;;;;;;631.80;470.65;;;;;;;13.70;91.98;96756.41;5087375;28;20056;-77
2022/05/06 10:50:29;;;;;;;626.10;460.55;;;;;;;13.67;92.27;96758.97;5087096;28;20044;-76
2022/05/06 10:52:56;;;;;;;633.15;471.48;;;;;;;13.60;92.27;96748.53;5087965;28;20047;-76
2022/05/06 10:55:24;;;;;;;627.55;484.00;;;;;;;13.63;92.47;96753.38;5087318;28;20520;-75
2022/05/06 10:57:56;;;;;;;626.97;481.52;;;;;;;13.63;92.38;96752.56;5087162;28;20047;-75
2022/05/06 11:00:23;;;;;;;634.28;502.27;;;;;;;13.62;92.37;96757.22;5087467;28;20414;-76
2022/05/06 11:02:50;;;;;;;642.28;508.10;;;;;;;13.63;92.47;96753.38;5086955;28;20058;-75
2022/05/06 11:05:20;;;;;;;626.65;470.02;;;;;;;13.62;92.68;96738.06;5087809;28;20712;-75
2022/05/06 11:07:49;;;;;;;611.25;428.15;;;;;;;13.66;92.75;96746.44;5086330;28;20051;-75
2022/05/06 11:10:17;;;;;;;625.70;437.67;;;;;;;13.61;92.72;96739.19;5087252;28;20044;-76
2022/05/06 11:12:45;;;;;;;623.42;462.42;;;;;;;13.61;92.53;96744.66;5086570;28;20514;-76
2022/05/06 11:15:14;;;;;;;653.38;558.08;;;;;;;13.55;91.79;96740.50;5086640;28;20043;-76
2022/05/06 11:17:41;;;;;;;623.30;435.95;;;;;;;13.54;92.04;96744.38;5087026;28;20182;-77
2022/05/06 11:20:17;;;;;;;632.08;471.08;;;;;;;13.54;92.19;96747.13;5086189;28;20052;-76
2022/05/06 11:22:56;;;;;;;630.13;498.42;;;;;;;13.55;92.40;96743.25;5087709;28;20109;-76
2022/05/06 11:25:24;;;;;;;616.50;441.42;;;;;;;13.51;92.18;96747.75;5085890;28;20090;-76
2022/05/06 11:27:52;;;;;;;623.05;449.08;;;;;;;13.53;92.38;96748.25;5087161;28;20052;-75
2022/05/06 11:30:20;;;;;;;613.80;438.85;;;;;;;13.60;92.47;96745.81;5086470;28;20051;-75
2022/05/06 11:32:49;;;;;;;619.40;436.90;;;;;;;13.63;92.43;96736.16;5086974;28;20044;-75
2022/05/06 11:35:19;;;;;;;619.92;441.90;;;;;;;13.65;92.55;96734.69;5086431;28;20134;-76
2022/05/06 11:37:46;;;;;;;634.53;471.95;;;;;;;13.70;93.07;96736.44;5087089;28;20690;-75
2022/05/06 11:40:34;;;;;;;629.63;485.73;;;;;;;13.74;92.90;96735.47;5087046;28;20040;-75
2022/05/06 11:43:01;;;;;;;632.03;457.83;;;;;;;13.78;92.01;96741.88;5086707;28;20590;-77
2022/05/06 11:48:14;;;;;;;635.95;465.17;;;;;;;13.79;92.04;96740.75;5065676;28;20166;-75
2022/05/06 11:50:42;;;;;;;637.22;462.33;;;;;;;13.91;92.09;96742.78;5066142;28;20045;-77
2022/05/06 11:53:10;;;;;;;643.58;494.35;;;;;;;13.95;91.76;96729.25;5066015;28;20499;-77